VTBU/UTP METAR and TAF weather

Enter ICAO airport designator
Station Type Date Time Source
VTBU METAR 2020/04/09 09:30 UTC NOAA

VTBU 090930Z 18012KT 150V220 9999 FEW020 31/24 Q1009 NOSIG


Station Type Date Time Source
VTBU Decoded METAR 2020/04/09 09:30 UTC NOAA

Rayong, Thailand (VTBU) 12-38N 101-21E 5M
Apr 09, 2020 - 05:30 AM EDT / 2020.04.09 0930 UTC
Wind: from the S (180 degrees) at 14 MPH (12 KT) (direction variable):0
Visibility: greater than 7 mile(s):0
Sky conditions: mostly clear
Temperature: 87 F (31 C)
Heat index: 95.7 F (35.4 C):1
Dew Point: 75 F (24 C)
Relative Humidity: 66%
Pressure (altimeter): 29.80 in. Hg (1009 hPa)
ob: VTBU 090930Z 18012KT 150V220 9999 FEW020 31/24 Q1009 NOSIG
cycle: 9

Station Type Date Time Source
VTBU TAF 2020/04/09 06:37 UTC NOAA

TAF VTBU 090500Z 0906/1006 18010KT 9999 FEW020

Example: see airport list